createdAt,value
2023-04-11T00:03:38.956Z,100799.02
2023-04-11T00:08:32.069Z,100789.23
2023-04-11T00:13:26.783Z,100784.02
2023-04-11T00:18:19.646Z,100782.19
2023-04-11T00:23:13.906Z,100772.42
2023-04-11T00:28:06.613Z,100765.34
2023-04-11T00:32:59.519Z,100767.02
2023-04-11T00:37:56.347Z,100761.17
2023-04-11T00:42:49.703Z,100756.85
2023-04-11T00:47:43.218Z,100750.99
2023-04-11T00:52:38.209Z,100743.34
2023-04-11T00:57:31.005Z,100739.77
2023-04-11T01:02:25.200Z,100734.71
2023-04-11T01:07:20.982Z,100730.08
2023-04-11T01:12:15.896Z,100725.63
2023-04-11T01:17:12.692Z,100724.77
2023-04-11T01:22:06.221Z,100722.02
2023-04-11T01:26:58.959Z,100714.67
2023-04-11T01:31:55.171Z,100707.41
2023-04-11T01:36:48.957Z,100708.47
2023-04-11T01:41:43.028Z,100709.66
2023-04-11T01:46:36.262Z,100704.82
2023-04-11T01:51:29.081Z,100696.13
2023-04-11T01:56:21.804Z,100691.13
2023-04-11T02:01:14.605Z,100686.52
2023-04-11T02:06:07.603Z,100681.21
2023-04-11T02:11:00.320Z,100672.14
2023-04-11T02:15:53.067Z,100674.05
2023-04-11T02:20:45.867Z,100670.41
2023-04-11T02:25:39.172Z,100671.48
2023-04-11T02:30:31.916Z,100665.65
2023-04-11T02:35:24.619Z,100665.23
2023-04-11T02:40:17.320Z,100663.53
2023-04-11T02:45:10.341Z,100655.69
2023-04-11T02:50:03.505Z,100653.60
2023-04-11T02:55:00.978Z,100651.83
2023-04-11T02:59:54.089Z,100649.88
2023-04-11T03:04:52.384Z,100647.08
2023-04-11T03:09:45.467Z,100642.34
2023-04-11T03:14:38.266Z,100646.41
2023-04-11T03:19:31.014Z,100643.19
2023-04-11T03:24:25.581Z,100633.02
2023-04-11T03:29:18.383Z,100630.96
2023-04-11T03:34:26.289Z,100626.31
2023-04-11T03:39:21.798Z,100625.40
2023-04-11T03:44:14.943Z,100622.38
2023-04-11T03:49:09.805Z,100615.58
2023-04-11T03:54:02.558Z,100615.72
2023-04-11T03:58:59.213Z,100617.04
2023-04-11T04:03:55.435Z,100610.98
2023-04-11T04:08:48.547Z,100608.86
2023-04-11T04:13:42.022Z,100603.65
2023-04-11T04:18:38.050Z,100599.73
2023-04-11T04:23:32.619Z,100602.71
2023-04-11T04:28:48.443Z,100607.81
2023-04-11T04:33:46.142Z,100609.34
2023-04-11T04:38:45.777Z,100615.88
2023-04-11T04:43:42.028Z,100616.70
2023-04-11T04:48:41.450Z,100616.35
2023-04-11T04:53:38.799Z,100604.66
2023-04-11T04:58:34.319Z,100608.59
2023-04-11T05:03:29.075Z,100596.80
2023-04-11T05:08:23.278Z,100595.48
2023-04-11T05:13:16.899Z,100599.92
2023-04-11T05:18:09.851Z,100597.04
2023-04-11T05:23:02.665Z,100589.80
2023-04-11T05:27:57.104Z,100588.36
2023-04-11T05:32:52.584Z,100587.01
2023-04-11T05:37:46.213Z,100578.77
2023-04-11T05:42:39.102Z,100574.55
2023-04-11T05:47:32.465Z,100568.48
2023-04-11T05:52:25.382Z,100560.95
2023-04-11T05:57:18.276Z,100545.67
2023-04-11T06:02:11.189Z,100531.98
2023-04-11T06:07:04.505Z,100519.52
2023-04-11T06:11:57.709Z,100517.84
2023-04-11T06:16:50.445Z,100516.89
2023-04-11T06:21:43.177Z,100511.05
2023-04-11T06:26:37.497Z,100509.11
2023-04-11T06:31:30.579Z,100511.57
2023-04-11T06:36:23.734Z,100503.43
2023-04-11T06:41:16.502Z,100494.39
2023-04-11T06:46:09.395Z,100487.77
2023-04-11T06:51:02.210Z,100482.20
2023-04-11T06:55:54.913Z,100477.55
2023-04-11T07:00:47.650Z,100475.06
2023-04-11T07:05:40.550Z,100472.45
2023-04-11T07:10:33.257Z,100469.61
2023-04-11T07:15:25.947Z,100462.44
2023-04-11T07:20:21.905Z,100450.23
2023-04-11T07:25:14.724Z,100424.38
2023-04-11T07:30:08.090Z,100422.05
2023-04-11T07:35:00.919Z,100410.65
2023-04-11T07:39:53.653Z,100409.51
2023-04-11T07:44:46.780Z,100402.58
2023-04-11T07:49:39.570Z,100393.35
2023-04-11T07:54:32.774Z,100386.55
2023-04-11T07:59:25.684Z,100376.94
2023-04-11T08:04:18.566Z,100372.04
2023-04-11T08:09:11.512Z,100372.04
2023-04-11T08:14:04.519Z,100362.91
2023-04-11T08:18:59.289Z,100356.91
2023-04-11T08:23:52.178Z,100356.17
2023-04-11T08:28:45.191Z,100353.25
2023-04-11T08:33:38.207Z,100350.72
2023-04-11T08:38:31.001Z,100347.24
2023-04-11T08:43:23.863Z,100335.77
2023-04-11T08:48:17.112Z,100334.17
2023-04-11T08:53:09.867Z,100322.67
2023-04-11T08:58:03.875Z,100312.37
2023-04-11T09:02:56.670Z,100307.71
2023-04-11T09:07:51.722Z,100292.77
2023-04-11T09:12:45.156Z,100290.66
2023-04-11T09:17:43.771Z,100298.47
2023-04-11T09:22:37.977Z,100289.02
2023-04-11T09:27:31.187Z,100284.40
2023-04-11T09:32:31.371Z,100270.83
2023-04-11T09:37:25.411Z,100269.19
2023-04-11T09:42:24.885Z,100253.73
2023-04-11T09:47:17.600Z,100251.95
2023-04-11T09:52:10.600Z,100233.80
2023-04-11T09:57:04.265Z,100218.27
2023-04-11T10:01:59.297Z,100214.96
2023-04-11T10:06:59.782Z,100196.27
2023-04-11T10:11:52.883Z,100178.23
2023-04-11T10:17:05.552Z,100174.15
2023-04-11T10:21:58.314Z,100166.11
2023-04-11T10:26:59.329Z,100160.67
2023-04-11T10:32:10.818Z,100161.98
2023-04-11T10:37:06.279Z,100157.04
2023-04-11T10:42:18.999Z,100150.01
2023-04-11T10:47:17.984Z,100144.01
2023-04-11T10:52:18.410Z,100134.67
2023-04-11T10:57:11.337Z,100131.50
2023-04-11T11:02:04.808Z,100124.98
2023-04-11T11:06:57.988Z,100127.14
2023-04-11T11:12:09.787Z,100127.39
2023-04-11T11:17:03.268Z,100114.27
2023-04-11T11:21:56.738Z,100111.00
2023-04-11T11:26:52.846Z,100108.71
2023-04-11T11:31:46.780Z,100099.64
2023-04-11T11:36:44.749Z,100099.70
2023-04-11T11:41:41.803Z,100105.63
2023-04-11T11:46:35.791Z,100102.60
2023-04-11T11:51:28.903Z,100095.85
2023-04-11T11:56:22.064Z,100095.66
2023-04-11T12:01:17.888Z,100092.95
2023-04-11T12:06:11.965Z,100088.06
2023-04-11T12:11:11.707Z,100085.49
2023-04-11T12:16:04.732Z,100087.29
2023-04-11T12:20:58.692Z,100081.08
2023-04-11T12:25:51.601Z,100079.30
2023-04-11T12:30:44.403Z,100074.70
2023-04-11T12:35:37.742Z,100070.88
2023-04-11T12:40:30.733Z,100065.48
2023-04-11T12:45:23.829Z,100058.14
2023-04-11T12:50:16.994Z,100057.83
2023-04-11T12:55:10.761Z,100053.27
2023-04-11T13:00:10.924Z,100050.44
2023-04-11T13:05:06.683Z,100038.64
2023-04-11T13:09:59.463Z,100031.85
2023-04-11T13:14:52.240Z,100024.67
2023-04-11T13:19:45.446Z,100017.56
2023-04-11T13:24:38.275Z,100006.73
2023-04-11T13:29:30.971Z,100000.11
2023-04-11T13:34:23.723Z,99991.64
2023-04-11T13:39:17.933Z,99983.12
2023-04-11T13:44:10.945Z,99983.36
2023-04-11T13:49:05.593Z,99979.06
2023-04-11T13:53:58.321Z,99962.25
2023-04-11T13:58:52.009Z,99959.80
2023-04-11T14:03:44.781Z,99954.82
2023-04-11T14:08:37.939Z,99948.83
2023-04-11T14:13:30.937Z,99943.82
2023-04-11T14:18:24.316Z,99940.66
2023-04-11T14:23:17.825Z,99937.84
2023-04-11T14:28:10.720Z,99932.10
2023-04-11T14:33:03.413Z,99936.68
2023-04-11T14:37:58.549Z,99933.60
2023-04-11T14:42:51.469Z,99930.64
2023-04-11T14:47:44.234Z,99926.27
2023-04-11T14:52:37.383Z,99918.45
2023-04-11T14:57:46.507Z,99913.49
2023-04-11T15:02:39.456Z,99909.10
2023-04-11T15:07:32.256Z,99905.27
2023-04-11T15:12:25.109Z,99903.89
2023-04-11T15:17:17.941Z,99899.39
2023-04-11T15:22:10.798Z,99893.64
2023-04-11T15:27:03.879Z,99896.14
2023-04-11T15:31:56.601Z,99890.17
2023-04-11T15:36:49.359Z,99882.60
2023-04-11T15:41:42.502Z,99875.55
2023-04-11T15:46:35.762Z,99867.25
2023-04-11T15:51:29.292Z,99864.16
2023-04-11T15:56:22.496Z,99857.67
2023-04-11T16:01:25.814Z,99856.58
2023-04-11T16:06:20.215Z,99853.86
2023-04-11T16:11:13.104Z,99853.85
2023-04-11T16:16:08.409Z,99853.94
2023-04-11T16:21:01.305Z,99854.44
2023-04-11T16:25:54.080Z,99846.32
2023-04-11T16:30:50.187Z,99848.29
2023-04-11T16:35:43.116Z,99847.61
2023-04-11T16:40:35.964Z,99846.19
2023-04-11T16:45:29.108Z,99839.22
2023-04-11T16:50:22.700Z,99835.22
2023-04-11T16:55:15.563Z,99834.02
2023-04-11T17:00:11.528Z,99833.04
2023-04-11T17:05:04.898Z,99829.80
2023-04-11T17:09:57.951Z,99828.63
2023-04-11T17:14:52.671Z,99835.10
2023-04-11T17:19:45.463Z,99836.48
2023-04-11T17:24:38.217Z,99838.89
2023-04-11T17:29:31.266Z,99835.22
2023-04-11T17:34:24.080Z,99832.57
2023-04-11T17:39:19.760Z,99833.36
2023-04-11T17:44:12.597Z,99831.53
2023-04-11T17:49:05.427Z,99837.85
2023-04-11T17:53:58.727Z,99841.16
2023-04-11T17:58:51.858Z,99841.19
2023-04-11T18:03:44.807Z,99847.11
2023-04-11T18:08:50.309Z,99843.63
2023-04-11T18:13:45.919Z,99848.30
2023-04-11T18:18:40.122Z,99850.55
2023-04-11T18:23:32.856Z,99853.65
2023-04-11T18:28:25.649Z,99855.36
2023-04-11T18:33:19.688Z,99856.87
2023-04-11T18:38:13.584Z,99856.83
2023-04-11T18:43:09.111Z,99854.00
2023-04-11T18:48:02.500Z,99862.41
2023-04-11T18:52:57.949Z,99860.95
2023-04-11T18:57:58.637Z,99857.77
2023-04-11T19:02:53.296Z,99853.40
2023-04-11T19:07:46.916Z,99854.40
2023-04-11T19:12:39.851Z,99844.48
2023-04-11T19:17:32.633Z,99848.05
2023-04-11T19:22:25.350Z,99847.32
2023-04-11T19:27:18.551Z,99843.45
2023-04-11T19:32:11.718Z,99843.73
2023-04-11T19:37:04.538Z,99847.13
2023-04-11T19:41:57.612Z,99850.16
2023-04-11T19:46:50.477Z,99847.78
2023-04-11T19:51:43.185Z,99851.85
2023-04-11T19:56:37.448Z,99852.63
2023-04-11T20:01:32.424Z,99854.93
2023-04-11T20:06:25.253Z,99855.04
2023-04-11T20:11:18.041Z,99854.05
2023-04-11T20:16:11.634Z,99853.23
2023-04-11T20:21:06.398Z,99852.22
2023-04-11T20:25:59.122Z,99851.69
2023-04-11T20:30:52.217Z,99846.61
2023-04-11T20:35:44.947Z,99841.77
2023-04-11T20:40:38.956Z,99839.36
2023-04-11T20:45:33.499Z,99837.77
2023-04-11T20:50:30.986Z,99840.61
2023-04-11T20:55:25.478Z,99847.43
2023-04-11T21:00:18.687Z,99843.39
2023-04-11T21:05:12.059Z,99844.66
2023-04-11T21:10:06.753Z,99849.22
2023-04-11T21:15:00.368Z,99851.41
2023-04-11T21:19:53.133Z,99847.52
2023-04-11T21:24:45.868Z,99843.27
2023-04-11T21:29:38.563Z,99840.75
2023-04-11T21:34:31.226Z,99841.83
2023-04-11T21:39:24.225Z,99838.45
2023-04-11T21:44:16.943Z,99836.47
2023-04-11T21:49:10.019Z,99831.34
2023-04-11T21:54:04.572Z,99828.31
2023-04-11T21:58:57.241Z,99824.59
2023-04-11T22:03:50.589Z,99821.78
2023-04-11T22:08:50.480Z,99826.39
2023-04-11T22:13:46.695Z,99833.77
2023-04-11T22:18:49.145Z,99832.75
2023-04-11T22:23:44.818Z,99833.20
2023-04-11T22:28:38.282Z,99829.85
2023-04-11T22:33:31.011Z,99827.86
2023-04-11T22:38:24.482Z,99822.20
2023-04-11T22:43:17.265Z,99817.91
2023-04-11T22:48:10.153Z,99811.34
2023-04-11T22:53:03.192Z,99812.15
2023-04-11T22:57:58.072Z,99807.20
2023-04-11T23:02:51.149Z,99809.64
2023-04-11T23:07:44.039Z,99803.86
2023-04-11T23:12:37.393Z,99800.71
2023-04-11T23:17:30.225Z,99795.83
2023-04-11T23:22:23.688Z,99801.55
2023-04-11T23:27:17.215Z,99802.66
2023-04-11T23:32:09.897Z,99808.68
2023-04-11T23:37:02.617Z,99807.05
2023-04-11T23:41:55.300Z,99806.20
2023-04-11T23:46:47.972Z,99803.02
2023-04-11T23:51:40.679Z,99802.63
2023-04-11T23:56:33.445Z,99812.13
